createdAt,value
2017-11-14T00:00:57.415Z,0
2017-11-14T00:02:06.031Z,0
2017-11-14T00:03:14.660Z,0
2017-11-14T00:04:23.282Z,0
2017-11-14T00:05:31.912Z,0
2017-11-14T00:06:40.546Z,0
2017-11-14T00:07:49.154Z,0
2017-11-14T00:08:57.787Z,0
2017-11-14T00:10:06.424Z,0
2017-11-14T00:11:15.037Z,0
2017-11-14T00:12:23.661Z,0
2017-11-14T00:13:32.283Z,0
2017-11-14T00:14:40.903Z,0
2017-11-14T00:15:49.525Z,0
2017-11-14T00:16:58.156Z,0
2017-11-14T00:18:06.777Z,0
2017-11-14T00:19:15.395Z,0
2017-11-14T00:20:24.021Z,0
2017-11-14T00:21:32.636Z,0
2017-11-14T00:22:41.258Z,0
2017-11-14T00:23:49.877Z,0
2017-11-14T00:24:58.832Z,0
2017-11-14T00:26:07.462Z,0
2017-11-14T00:27:16.080Z,0
2017-11-14T00:28:24.698Z,0
2017-11-14T00:29:33.325Z,0
2017-11-14T00:30:41.941Z,0
2017-11-14T00:31:50.558Z,0
2017-11-14T00:32:59.181Z,0
2017-11-14T00:34:08.146Z,0
2017-11-14T00:35:16.761Z,0
2017-11-14T00:36:25.382Z,0
2017-11-14T00:37:34.001Z,0
2017-11-14T00:38:42.630Z,0
2017-11-14T00:39:51.579Z,0
2017-11-14T00:41:00.534Z,0
2017-11-14T00:42:09.158Z,0
2017-11-14T00:43:17.767Z,0
2017-11-14T00:44:26.402Z,0
2017-11-14T00:45:35.015Z,0
2017-11-14T00:46:43.629Z,0
2017-11-14T00:47:52.256Z,0
2017-11-14T00:49:00.870Z,0
2017-11-14T00:50:09.490Z,0
2017-11-14T00:51:18.106Z,0
2017-11-14T00:52:26.721Z,0
2017-11-14T00:53:35.371Z,0
2017-11-14T00:54:43.967Z,0
2017-11-14T00:55:52.584Z,0
2017-11-14T00:57:01.210Z,0
2017-11-14T00:58:09.831Z,0
2017-11-14T00:59:18.445Z,0
2017-11-14T01:00:27.065Z,0
2017-11-14T01:01:35.691Z,0
2017-11-14T01:02:44.300Z,0
2017-11-14T01:03:52.926Z,0
2017-11-14T01:05:01.543Z,0
2017-11-14T01:06:10.168Z,0
2017-11-14T01:07:18.785Z,0
2017-11-14T01:08:27.402Z,0
2017-11-14T01:09:36.023Z,0
2017-11-14T01:10:44.994Z,0
2017-11-14T01:11:53.608Z,0
2017-11-14T01:13:02.234Z,0
2017-11-14T01:14:10.855Z,0
2017-11-14T01:15:19.493Z,0
2017-11-14T01:16:28.102Z,0
2017-11-14T01:17:36.719Z,0
2017-11-14T01:18:45.344Z,0
2017-11-14T01:19:54.291Z,0
2017-11-14T01:21:02.914Z,0
2017-11-14T01:22:11.531Z,0
2017-11-14T01:23:20.151Z,0
2017-11-14T01:24:28.789Z,0
2017-11-14T01:25:37.396Z,0
2017-11-14T01:26:46.014Z,0
2017-11-14T01:27:54.638Z,0
2017-11-14T01:29:03.600Z,0
2017-11-14T01:30:12.215Z,0
2017-11-14T01:31:20.839Z,0
2017-11-14T01:32:29.456Z,0
2017-11-14T01:33:38.077Z,0
2017-11-14T01:34:47.030Z,0
2017-11-14T01:35:55.650Z,0
2017-11-14T01:37:04.274Z,0
2017-11-14T01:38:12.899Z,0
2017-11-14T01:39:21.501Z,0
2017-11-14T01:40:30.122Z,0
2017-11-14T01:41:38.740Z,0
2017-11-14T01:42:47.368Z,0
2017-11-14T01:43:55.986Z,0
2017-11-14T01:45:04.601Z,0
2017-11-14T01:46:13.220Z,0
2017-11-14T01:47:21.844Z,0
2017-11-14T01:48:30.457Z,0
2017-11-14T01:49:39.079Z,0
2017-11-14T01:50:47.695Z,0
2017-11-14T01:51:56.322Z,0
2017-11-14T01:53:04.942Z,0
2017-11-14T01:54:13.563Z,0
2017-11-14T01:55:22.526Z,0
2017-11-14T01:56:31.146Z,0
2017-11-14T01:57:39.758Z,0
2017-11-14T01:58:48.383Z,0
2017-11-14T01:59:57.004Z,0
2017-11-14T02:01:05.621Z,0
2017-11-14T02:02:14.245Z,0
2017-11-14T02:03:22.867Z,0
2017-11-14T02:04:31.488Z,0
2017-11-14T02:05:40.111Z,0
2017-11-14T02:06:49.056Z,0
2017-11-14T02:07:57.676Z,0
2017-11-14T02:09:06.299Z,0
2017-11-14T02:10:14.921Z,0
2017-11-14T02:11:23.535Z,0
2017-11-14T02:12:32.157Z,0
2017-11-14T02:13:40.781Z,0
2017-11-14T02:14:49.399Z,0
2017-11-14T02:15:58.024Z,0
2017-11-14T02:17:06.640Z,0
2017-11-14T02:18:15.263Z,0
2017-11-14T02:19:23.876Z,0
2017-11-14T02:20:32.495Z,0
2017-11-14T02:21:41.111Z,0
2017-11-14T02:22:49.729Z,0
2017-11-14T02:23:58.342Z,0
2017-11-14T02:25:06.969Z,0
2017-11-14T02:26:15.590Z,0
2017-11-14T02:27:24.209Z,0
2017-11-14T02:28:32.837Z,0
2017-11-14T02:29:41.787Z,0
2017-11-14T02:30:50.411Z,0
2017-11-14T02:31:59.364Z,0
2017-11-14T02:33:07.985Z,0
2017-11-14T02:34:16.604Z,0
2017-11-14T02:35:25.556Z,0
2017-11-14T02:36:34.173Z,0
2017-11-14T02:37:42.799Z,0
2017-11-14T02:38:51.763Z,0
2017-11-14T02:40:00.371Z,0
2017-11-14T02:41:08.987Z,0
2017-11-14T02:42:17.603Z,0
2017-11-14T02:43:26.229Z,0
2017-11-14T02:44:34.848Z,0
2017-11-14T02:45:43.470Z,0
2017-11-14T02:46:52.089Z,0
2017-11-14T02:48:00.708Z,0
2017-11-14T02:49:09.340Z,0
2017-11-14T02:50:18.617Z,0
2017-11-14T02:51:27.233Z,0
2017-11-14T02:52:35.859Z,0
2017-11-14T02:53:44.472Z,0
2017-11-14T02:54:53.092Z,0
2017-11-14T02:56:01.730Z,0
2017-11-14T02:57:10.346Z,0
2017-11-14T02:58:18.985Z,0
2017-11-14T02:59:27.945Z,0
2017-11-14T03:00:36.565Z,0
2017-11-14T03:01:45.176Z,0
2017-11-14T03:02:53.797Z,0
2017-11-14T03:04:02.754Z,0
2017-11-14T03:05:11.379Z,0
2017-11-14T03:06:19.997Z,0
2017-11-14T03:07:28.616Z,0
2017-11-14T03:08:37.239Z,0
2017-11-14T03:09:45.864Z,0
2017-11-14T03:10:54.479Z,0
2017-11-14T03:12:03.435Z,0
2017-11-14T03:13:12.050Z,0
2017-11-14T03:14:20.667Z,0
2017-11-14T03:15:29.283Z,0
2017-11-14T03:16:37.911Z,0
2017-11-14T03:17:46.533Z,0
2017-11-14T03:18:55.154Z,0
2017-11-14T03:20:03.774Z,0
2017-11-14T03:21:12.395Z,0
2017-11-14T03:22:21.021Z,0
2017-11-14T03:23:29.968Z,0
2017-11-14T03:24:38.584Z,0
2017-11-14T03:25:47.206Z,0
2017-11-14T03:26:55.827Z,0
2017-11-14T03:28:04.441Z,0
2017-11-14T03:29:13.068Z,0
2017-11-14T03:30:21.687Z,0
2017-11-14T03:31:30.310Z,0
2017-11-14T03:32:38.940Z,0
2017-11-14T03:33:47.563Z,0
2017-11-14T03:34:56.186Z,0
2017-11-14T03:36:04.802Z,0
2017-11-14T03:37:13.419Z,0
2017-11-14T03:38:22.049Z,0
2017-11-14T03:39:30.667Z,0
2017-11-14T03:40:39.292Z,0
2017-11-14T03:41:47.903Z,0
2017-11-14T03:42:56.912Z,0
2017-11-14T03:44:05.535Z,0
2017-11-14T03:45:14.157Z,0
2017-11-14T03:46:22.780Z,0
2017-11-14T03:47:31.396Z,0
2017-11-14T03:48:40.018Z,0
2017-11-14T03:49:48.642Z,0
2017-11-14T03:50:57.250Z,0
2017-11-14T03:52:05.876Z,0
2017-11-14T03:53:14.500Z,0
2017-11-14T03:54:23.116Z,0
2017-11-14T03:55:31.734Z,0
2017-11-14T03:56:40.361Z,0
2017-11-14T03:57:48.979Z,0
2017-11-14T03:58:57.596Z,0
2017-11-14T04:00:06.224Z,0
2017-11-14T04:01:14.835Z,0
2017-11-14T04:02:23.459Z,0
2017-11-14T04:03:32.076Z,0
2017-11-14T04:04:40.700Z,0
2017-11-14T04:05:49.661Z,0
2017-11-14T04:06:58.274Z,0
2017-11-14T04:08:06.893Z,0
2017-11-14T04:09:15.515Z,0
2017-11-14T04:10:24.133Z,0
2017-11-14T04:11:32.749Z,0
2017-11-14T04:12:41.370Z,0
2017-11-14T04:13:50.328Z,0
2017-11-14T04:14:58.942Z,0
2017-11-14T04:16:07.564Z,0
2017-11-14T04:17:16.191Z,0
2017-11-14T04:18:24.818Z,0
2017-11-14T04:19:33.434Z,0
2017-11-14T04:20:42.050Z,0
2017-11-14T04:21:51.011Z,0
2017-11-14T04:22:59.636Z,0
2017-11-14T04:24:08.249Z,0
2017-11-14T04:25:16.870Z,0
2017-11-14T04:26:25.507Z,0
2017-11-14T04:27:34.113Z,0
2017-11-14T04:28:42.739Z,0
2017-11-14T04:29:51.361Z,0
2017-11-14T04:30:59.985Z,0
2017-11-14T04:32:08.604Z,0
2017-11-14T04:33:17.225Z,0
2017-11-14T04:34:25.844Z,0
2017-11-14T04:35:34.482Z,0
2017-11-14T04:36:43.422Z,0
2017-11-14T04:37:52.045Z,0
2017-11-14T04:39:00.663Z,0
2017-11-14T04:40:09.286Z,0
2017-11-14T04:41:17.913Z,0
2017-11-14T04:42:26.524Z,0
2017-11-14T04:43:35.144Z,0
2017-11-14T04:44:43.764Z,0
2017-11-14T04:45:52.388Z,0
2017-11-14T04:47:01.010Z,0
2017-11-14T04:48:09.627Z,0
2017-11-14T04:49:18.252Z,0
2017-11-14T04:50:26.874Z,0
2017-11-14T04:51:35.486Z,0
2017-11-14T04:52:44.117Z,0
2017-11-14T04:53:52.744Z,0
2017-11-14T04:55:01.344Z,0
2017-11-14T04:56:09.968Z,0
2017-11-14T04:57:18.933Z,0
2017-11-14T04:58:27.550Z,0
2017-11-14T04:59:36.175Z,0
2017-11-14T05:00:44.785Z,0
2017-11-14T05:01:53.404Z,0
2017-11-14T05:03:02.361Z,0
2017-11-14T05:04:10.971Z,0
2017-11-14T05:05:19.596Z,0
2017-11-14T05:06:28.217Z,0
2017-11-14T05:07:36.839Z,0
2017-11-14T05:08:45.460Z,0
2017-11-14T05:09:54.070Z,0
2017-11-14T05:11:02.695Z,0
2017-11-14T05:12:11.313Z,0
2017-11-14T05:13:19.925Z,0
2017-11-14T05:14:28.553Z,0
2017-11-14T05:15:37.168Z,0
2017-11-14T05:16:45.788Z,0
2017-11-14T05:17:54.415Z,0
2017-11-14T05:19:03.023Z,0
2017-11-14T05:20:11.972Z,0
2017-11-14T05:21:20.593Z,0
2017-11-14T05:22:29.204Z,0
2017-11-14T05:23:37.824Z,0
2017-11-14T05:24:46.444Z,0
2017-11-14T05:25:55.060Z,0
2017-11-14T05:27:03.681Z,0
2017-11-14T05:28:12.303Z,0
2017-11-14T05:29:21.254Z,0
2017-11-14T05:30:29.875Z,0
2017-11-14T05:31:38.488Z,0
2017-11-14T05:32:47.106Z,0
2017-11-14T05:33:55.729Z,0
2017-11-14T05:35:04.363Z,0
2017-11-14T05:36:13.314Z,0
2017-11-14T05:37:22.257Z,0
2017-11-14T05:38:30.881Z,0
2017-11-14T05:39:39.507Z,0
2017-11-14T05:40:48.113Z,0
2017-11-14T05:41:56.732Z,0
2017-11-14T05:43:05.353Z,0
2017-11-14T05:44:13.978Z,0
2017-11-14T05:45:22.600Z,0
2017-11-14T05:46:31.213Z,0
2017-11-14T05:47:39.836Z,0
2017-11-14T05:48:48.457Z,0
2017-11-14T05:49:57.073Z,0
2017-11-14T05:51:06.039Z,0
2017-11-14T05:52:14.662Z,0
2017-11-14T05:53:23.281Z,0
2017-11-14T05:54:31.896Z,0
2017-11-14T05:55:40.522Z,0
2017-11-14T05:56:49.140Z,0
2017-11-14T05:57:57.763Z,0
2017-11-14T05:59:06.375Z,0
2017-11-14T06:00:14.996Z,0
2017-11-14T06:01:23.620Z,0
2017-11-14T06:02:32.235Z,0
2017-11-14T06:03:41.195Z,0
2017-11-14T06:04:49.823Z,0
2017-11-14T06:05:58.442Z,0
2017-11-14T06:07:07.058Z,0
2017-11-14T06:08:15.683Z,0
2017-11-14T06:09:24.296Z,0
2017-11-14T06:10:32.917Z,0
2017-11-14T06:11:41.541Z,0
2017-11-14T06:12:50.155Z,0
2017-11-14T06:13:58.780Z,4
2017-11-14T06:15:07.405Z,0
2017-11-14T06:16:16.017Z,4
2017-11-14T06:17:24.641Z,4
2017-11-14T06:18:33.260Z,0
2017-11-14T06:19:41.876Z,4
2017-11-14T06:20:50.497Z,4
2017-11-14T06:21:59.119Z,4
2017-11-14T06:23:07.729Z,4
2017-11-14T06:24:16.352Z,4
2017-11-14T06:25:24.970Z,4
2017-11-14T06:26:33.582Z,4
2017-11-14T06:27:42.207Z,8
2017-11-14T06:28:50.823Z,4
2017-11-14T06:29:59.444Z,8
2017-11-14T06:31:08.401Z,12
2017-11-14T06:32:17.014Z,12
2017-11-14T06:33:25.637Z,12
2017-11-14T06:34:34.253Z,16
2017-11-14T06:35:42.882Z,20
2017-11-14T06:36:51.499Z,24
2017-11-14T06:38:00.118Z,24
2017-11-14T06:39:08.739Z,32
2017-11-14T06:40:17.363Z,32
2017-11-14T06:41:26.308Z,36
2017-11-14T06:42:34.930Z,44
2017-11-14T06:43:43.545Z,48
2017-11-14T06:44:52.168Z,56
2017-11-14T06:46:00.787Z,64
2017-11-14T06:47:09.407Z,68
2017-11-14T06:48:18.031Z,72
2017-11-14T06:49:26.987Z,80
2017-11-14T06:50:35.597Z,88
2017-11-14T06:51:44.227Z,96
2017-11-14T06:52:52.841Z,104
2017-11-14T06:54:01.458Z,112
2017-11-14T06:55:10.079Z,124
2017-11-14T06:56:18.707Z,140
2017-11-14T06:57:27.320Z,152
2017-11-14T06:58:35.942Z,156
2017-11-14T06:59:44.558Z,164
2017-11-14T07:00:53.180Z,172
2017-11-14T07:02:01.805Z,184
2017-11-14T07:03:10.418Z,200
2017-11-14T07:04:19.039Z,220
2017-11-14T07:05:27.662Z,228
2017-11-14T07:06:36.279Z,240
2017-11-14T07:07:44.897Z,240
2017-11-14T07:08:53.522Z,244
2017-11-14T07:10:02.138Z,252
2017-11-14T07:11:10.761Z,276
2017-11-14T07:12:19.373Z,308
2017-11-14T07:13:27.999Z,328
2017-11-14T07:14:36.620Z,328
2017-11-14T07:15:45.241Z,328
2017-11-14T07:16:53.860Z,340
2017-11-14T07:18:02.487Z,388
2017-11-14T07:19:11.105Z,452
2017-11-14T07:20:19.722Z,536
2017-11-14T07:21:28.353Z,640
2017-11-14T07:22:36.968Z,740
2017-11-14T07:23:45.926Z,836
2017-11-14T07:24:54.542Z,952
2017-11-14T07:26:03.488Z,1076
2017-11-14T07:27:12.115Z,1176
2017-11-14T07:28:21.065Z,1228
2017-11-14T07:29:29.683Z,1248
2017-11-14T07:30:38.311Z,1220
2017-11-14T07:31:46.932Z,1168
2017-11-14T07:32:55.550Z,1120
2017-11-14T07:34:04.168Z,1092
2017-11-14T07:35:12.792Z,1080
2017-11-14T07:36:21.419Z,1080
2017-11-14T07:37:30.037Z,1092
2017-11-14T07:38:38.659Z,1108
2017-11-14T07:39:47.610Z,1092
2017-11-14T07:40:56.222Z,1128
2017-11-14T07:42:05.188Z,1184
2017-11-14T07:43:14.148Z,1216
2017-11-14T07:44:22.766Z,1308
2017-11-14T07:45:31.394Z,1416
2017-11-14T07:46:40.010Z,1448
2017-11-14T07:47:48.630Z,1364
2017-11-14T07:48:57.591Z,1292
2017-11-14T07:50:06.208Z,1252
2017-11-14T07:51:14.829Z,1228
2017-11-14T07:52:23.447Z,1212
2017-11-14T07:53:32.408Z,1208
2017-11-14T07:54:41.025Z,1220
2017-11-14T07:55:49.649Z,1224
2017-11-14T07:56:58.264Z,1212
2017-11-14T07:58:06.889Z,1184
2017-11-14T07:59:15.509Z,1168
2017-11-14T08:00:24.128Z,1176
2017-11-14T08:01:32.752Z,1200
2017-11-14T08:02:41.374Z,1224
2017-11-14T08:03:49.987Z,1260
2017-11-14T08:04:58.611Z,1296
2017-11-14T08:06:07.238Z,1340
2017-11-14T08:07:15.851Z,1380
2017-11-14T08:08:24.479Z,1416
2017-11-14T08:09:33.096Z,1444
2017-11-14T08:10:41.720Z,1460
2017-11-14T08:11:50.342Z,1484
2017-11-14T08:12:58.958Z,1496
2017-11-14T08:14:07.917Z,1516
2017-11-14T08:15:16.543Z,1536
2017-11-14T08:16:25.156Z,1556
2017-11-14T08:17:33.779Z,1584
2017-11-14T08:18:42.406Z,1588
2017-11-14T08:19:51.018Z,1580
2017-11-14T08:20:59.636Z,1572
2017-11-14T08:22:08.265Z,1556
2017-11-14T08:23:16.890Z,1552
2017-11-14T08:24:25.513Z,1548
2017-11-14T08:25:34.129Z,1540
2017-11-14T08:26:43.757Z,1528
2017-11-14T08:27:52.559Z,1536
2017-11-14T08:29:01.669Z,1548
2017-11-14T08:30:11.823Z,1540
2017-11-14T08:31:21.574Z,1524
2017-11-14T08:32:30.321Z,1512
2017-11-14T08:33:38.944Z,1488
2017-11-14T08:34:47.559Z,1456
2017-11-14T08:35:56.185Z,1400
2017-11-14T08:37:04.819Z,1348
2017-11-14T08:38:13.429Z,1316
2017-11-14T08:39:22.059Z,1312
2017-11-14T08:40:30.673Z,1296
2017-11-14T08:41:39.318Z,1256
2017-11-14T08:42:47.947Z,1220
2017-11-14T08:43:56.561Z,1204
2017-11-14T08:45:05.186Z,1160
2017-11-14T08:46:13.809Z,1124
2017-11-14T08:47:22.426Z,1112
2017-11-14T08:48:31.048Z,1144
2017-11-14T08:49:40.016Z,1204
2017-11-14T08:50:48.634Z,1304
2017-11-14T08:51:57.253Z,1448
2017-11-14T08:53:05.881Z,1600
2017-11-14T08:54:14.493Z,1696
2017-11-14T08:55:23.116Z,1740
2017-11-14T08:56:31.734Z,1816
2017-11-14T08:57:40.357Z,1896
2017-11-14T08:58:49.315Z,1916
2017-11-14T08:59:57.934Z,1888
2017-11-14T09:01:06.561Z,1876
2017-11-14T09:02:15.180Z,1940
2017-11-14T09:03:24.152Z,1956
2017-11-14T09:04:32.766Z,1952
2017-11-14T09:05:41.383Z,1936
2017-11-14T09:06:50.004Z,1944
2017-11-14T09:07:58.635Z,1944
2017-11-14T09:09:07.253Z,1972
2017-11-14T09:10:15.873Z,2032
2017-11-14T09:11:24.489Z,2072
2017-11-14T09:12:33.111Z,2088
2017-11-14T09:13:41.733Z,2072
2017-11-14T09:14:50.353Z,2056
2017-11-14T09:15:58.973Z,2104
2017-11-14T09:17:07.602Z,2168
2017-11-14T09:18:16.558Z,2200
2017-11-14T09:19:25.181Z,2196
2017-11-14T09:20:33.811Z,2204
2017-11-14T09:21:42.766Z,2232
2017-11-14T09:22:51.385Z,2216
2017-11-14T09:24:00.006Z,2152
2017-11-14T09:25:09.300Z,2056
2017-11-14T09:26:17.927Z,2064
2017-11-14T09:27:26.553Z,2088
2017-11-14T09:28:35.542Z,2072
2017-11-14T09:29:44.169Z,2204
2017-11-14T09:30:52.788Z,2428
2017-11-14T09:32:01.412Z,2504
2017-11-14T09:33:10.032Z,2412
2017-11-14T09:34:18.655Z,2396
2017-11-14T09:35:27.612Z,2584
2017-11-14T09:36:36.234Z,2776
2017-11-14T09:37:45.190Z,2812
2017-11-14T09:38:53.805Z,2700
2017-11-14T09:40:02.432Z,2696
2017-11-14T09:41:11.061Z,2868
2017-11-14T09:42:19.677Z,3056
2017-11-14T09:43:28.640Z,3032
2017-11-14T09:44:37.270Z,2924
2017-11-14T09:45:45.889Z,2880
2017-11-14T09:46:54.508Z,2888
2017-11-14T09:48:03.137Z,2804
2017-11-14T09:49:11.760Z,2632
2017-11-14T09:50:20.408Z,2448
2017-11-14T09:51:29.356Z,2320
2017-11-14T09:52:37.973Z,2288
2017-11-14T09:53:46.603Z,2364
2017-11-14T09:54:55.223Z,2496
2017-11-14T09:56:03.903Z,2640
2017-11-14T09:57:12.876Z,2788
2017-11-14T09:58:21.519Z,2808
2017-11-14T09:59:30.154Z,2792
2017-11-14T10:00:38.775Z,2784
2017-11-14T10:01:47.405Z,2732
2017-11-14T10:02:56.028Z,2704
2017-11-14T10:04:04.654Z,2660
2017-11-14T10:05:13.367Z,2612
2017-11-14T10:06:21.980Z,2600
2017-11-14T10:07:30.611Z,2588
2017-11-14T10:08:39.231Z,2596
2017-11-14T10:09:47.859Z,2540
2017-11-14T10:10:56.476Z,2552
2017-11-14T10:12:05.093Z,2640
2017-11-14T10:13:13.717Z,2656
2017-11-14T10:14:22.343Z,2504
2017-11-14T10:15:30.964Z,2388
2017-11-14T10:16:39.587Z,2460
2017-11-14T10:17:48.371Z,2640
2017-11-14T10:18:57.051Z,2792
2017-11-14T10:20:05.673Z,2812
2017-11-14T10:21:14.304Z,2900
2017-11-14T10:22:22.924Z,3100
2017-11-14T10:23:31.556Z,3280
2017-11-14T10:24:40.172Z,3196
2017-11-14T10:25:48.800Z,3008
2017-11-14T10:26:57.426Z,2800
2017-11-14T10:28:06.046Z,2656
2017-11-14T10:29:14.674Z,2540
2017-11-14T10:30:23.292Z,2468
2017-11-14T10:31:31.919Z,2496
2017-11-14T10:32:40.547Z,2556
2017-11-14T10:33:49.497Z,2572
2017-11-14T10:34:58.120Z,2600
2017-11-14T10:36:06.752Z,2684
2017-11-14T10:37:15.380Z,2844
2017-11-14T10:38:24.002Z,3084
2017-11-14T10:39:32.946Z,3208
2017-11-14T10:40:41.577Z,3252
2017-11-14T10:41:50.205Z,3164
2017-11-14T10:42:58.824Z,3028
2017-11-14T10:44:08.135Z,2936
2017-11-14T10:45:16.759Z,2668
2017-11-14T10:46:25.380Z,2440
2017-11-14T10:47:34.002Z,2304
2017-11-14T10:48:42.635Z,2168
2017-11-14T10:49:51.260Z,2112
2017-11-14T10:51:00.218Z,2104
2017-11-14T10:52:09.177Z,2100
2017-11-14T10:53:17.792Z,2116
2017-11-14T10:54:26.418Z,2184
2017-11-14T10:55:35.042Z,2040
2017-11-14T10:56:43.665Z,2148
2017-11-14T10:57:52.293Z,2376
2017-11-14T10:59:00.912Z,1640
2017-11-14T11:00:09.538Z,1520
2017-11-14T11:01:18.166Z,1440
2017-11-14T11:02:27.115Z,1476
2017-11-14T11:03:35.737Z,1456
2017-11-14T11:04:44.364Z,1636
2017-11-14T11:05:52.979Z,1532
2017-11-14T11:07:01.609Z,1576
2017-11-14T11:08:10.227Z,1596
2017-11-14T11:09:18.853Z,1904
2017-11-14T11:10:27.485Z,2488
2017-11-14T11:11:36.108Z,2700
2017-11-14T11:12:44.728Z,2648
2017-11-14T11:13:53.348Z,2260
2017-11-14T11:15:01.975Z,2628
2017-11-14T11:16:10.589Z,2720
2017-11-14T11:17:19.216Z,2496
2017-11-14T11:18:27.839Z,2676
2017-11-14T11:19:36.454Z,2732
2017-11-14T11:20:45.085Z,2672
2017-11-14T11:21:53.710Z,2768
2017-11-14T11:23:02.342Z,3060
2017-11-14T11:24:10.964Z,3192
2017-11-14T11:25:19.632Z,3168
2017-11-14T11:26:28.202Z,2856
2017-11-14T11:27:36.823Z,2544
2017-11-14T11:28:45.454Z,2692
2017-11-14T11:29:54.072Z,2884
2017-11-14T11:31:02.693Z,2924
2017-11-14T11:32:11.322Z,3076
2017-11-14T11:33:20.281Z,3244
2017-11-14T11:34:28.893Z,3364
2017-11-14T11:35:38.662Z,3464
2017-11-14T11:36:47.283Z,3584
2017-11-14T11:37:55.913Z,3616
2017-11-14T11:39:04.534Z,3024
2017-11-14T11:40:13.160Z,3212
2017-11-14T11:41:21.789Z,3924
2017-11-14T11:42:30.412Z,3684
2017-11-14T11:43:39.030Z,4232
2017-11-14T11:44:47.655Z,4552
2017-11-14T11:45:56.283Z,4008
2017-11-14T11:47:04.896Z,3540
2017-11-14T11:48:13.520Z,3272
2017-11-14T11:49:22.148Z,3172
2017-11-14T11:50:30.775Z,3168
2017-11-14T11:51:39.406Z,3280
2017-11-14T11:52:48.024Z,3476
2017-11-14T11:53:56.665Z,3740
2017-11-14T11:55:05.648Z,3736
2017-11-14T11:56:14.270Z,3692
2017-11-14T11:57:23.229Z,3580
2017-11-14T11:58:31.850Z,3392
2017-11-14T11:59:40.472Z,3328
2017-11-14T12:00:49.103Z,3324
2017-11-14T12:01:57.728Z,3240
2017-11-14T12:03:06.352Z,3140
2017-11-14T12:04:14.977Z,3092
2017-11-14T12:05:23.617Z,3052
2017-11-14T12:06:32.226Z,2992
2017-11-14T12:07:40.854Z,2944
2017-11-14T12:08:49.481Z,2920
2017-11-14T12:09:58.105Z,2960
2017-11-14T12:11:06.734Z,3112
2017-11-14T12:12:15.359Z,3284
2017-11-14T12:13:23.983Z,3408
2017-11-14T12:14:32.608Z,3436
2017-11-14T12:15:41.231Z,3404
2017-11-14T12:16:49.858Z,3288
2017-11-14T12:17:58.480Z,3124
2017-11-14T12:19:07.106Z,2928
2017-11-14T12:20:15.740Z,2772
2017-11-14T12:21:24.358Z,2696
2017-11-14T12:22:32.987Z,2600
2017-11-14T12:23:41.949Z,2472
2017-11-14T12:24:50.908Z,2496
2017-11-14T12:25:59.529Z,2580
2017-11-14T12:27:08.151Z,2632
2017-11-14T12:28:16.774Z,2776
2017-11-14T12:29:25.408Z,2716
2017-11-14T12:30:34.029Z,2516
2017-11-14T12:31:42.651Z,2240
2017-11-14T12:32:51.281Z,2156
2017-11-14T12:33:59.896Z,2148
2017-11-14T12:35:08.524Z,2184
2017-11-14T12:36:17.151Z,2144
2017-11-14T12:37:26.100Z,2008
2017-11-14T12:38:34.729Z,1940
2017-11-14T12:39:43.351Z,1940
2017-11-14T12:40:51.987Z,2024
2017-11-14T12:42:00.611Z,2136
2017-11-14T12:43:09.235Z,2176
2017-11-14T12:44:17.859Z,2196
2017-11-14T12:45:26.823Z,2256
2017-11-14T12:46:35.451Z,2332
2017-11-14T12:47:44.071Z,2384
2017-11-14T12:48:52.700Z,2348
2017-11-14T12:50:01.318Z,2204
2017-11-14T12:51:09.949Z,2064
2017-11-14T12:52:18.574Z,2036
2017-11-14T12:53:27.197Z,2108
2017-11-14T12:54:36.172Z,2272
2017-11-14T12:55:44.791Z,2516
2017-11-14T12:56:53.419Z,2656
2017-11-14T12:58:02.211Z,2708
2017-11-14T12:59:11.091Z,2788
2017-11-14T13:00:19.725Z,2872
2017-11-14T13:01:28.347Z,2868
2017-11-14T13:02:36.970Z,2864
2017-11-14T13:03:45.591Z,2832
2017-11-14T13:04:54.214Z,2636
2017-11-14T13:06:02.848Z,2396
2017-11-14T13:07:11.731Z,2328
2017-11-14T13:08:20.354Z,2272
2017-11-14T13:09:29.259Z,2304
2017-11-14T13:10:37.881Z,2468
2017-11-14T13:11:46.507Z,2604
2017-11-14T13:12:55.133Z,2684
2017-11-14T13:14:03.771Z,2664
2017-11-14T13:15:12.390Z,2612
2017-11-14T13:16:21.290Z,2580
2017-11-14T13:17:29.913Z,2420
2017-11-14T13:18:38.545Z,2364
2017-11-14T13:19:47.433Z,2292
2017-11-14T13:20:56.055Z,2188
2017-11-14T13:22:04.683Z,2116
2017-11-14T13:23:13.310Z,2012
2017-11-14T13:24:21.929Z,1936
2017-11-14T13:25:30.553Z,1904
2017-11-14T13:26:39.177Z,1912
2017-11-14T13:27:47.812Z,1908
2017-11-14T13:28:56.435Z,1868
2017-11-14T13:30:05.057Z,1832
2017-11-14T13:31:13.681Z,1804
2017-11-14T13:32:22.308Z,1728
2017-11-14T13:33:30.937Z,1604
2017-11-14T13:34:39.582Z,1448
2017-11-14T13:35:48.180Z,1312
2017-11-14T13:36:56.815Z,1216
2017-11-14T13:38:05.440Z,1184
2017-11-14T13:39:14.068Z,1156
2017-11-14T13:40:22.694Z,1112
2017-11-14T13:41:31.322Z,1084
2017-11-14T13:42:39.942Z,1044
2017-11-14T13:43:48.843Z,976
2017-11-14T13:44:57.471Z,904
2017-11-14T13:46:06.090Z,876
2017-11-14T13:47:14.724Z,872
2017-11-14T13:48:23.358Z,828
2017-11-14T13:49:31.980Z,744
2017-11-14T13:50:40.608Z,688
2017-11-14T13:51:49.221Z,668
2017-11-14T13:52:57.874Z,696
2017-11-14T13:54:06.504Z,736
2017-11-14T13:55:15.126Z,776
2017-11-14T13:56:23.750Z,832
2017-11-14T13:57:32.378Z,816
2017-11-14T13:58:41.001Z,800
2017-11-14T13:59:49.626Z,792
2017-11-14T14:00:58.257Z,756
2017-11-14T14:02:06.882Z,680
2017-11-14T14:03:15.510Z,644
2017-11-14T14:04:24.131Z,628
2017-11-14T14:05:32.761Z,556
2017-11-14T14:06:41.395Z,500
2017-11-14T14:07:50.022Z,476
2017-11-14T14:08:58.643Z,448
2017-11-14T14:10:07.273Z,412
2017-11-14T14:11:15.896Z,404
2017-11-14T14:12:24.519Z,404
2017-11-14T14:13:33.168Z,412
2017-11-14T14:14:41.775Z,440
2017-11-14T14:15:50.399Z,476
2017-11-14T14:16:59.285Z,508
2017-11-14T14:18:07.910Z,520
2017-11-14T14:19:16.543Z,508
2017-11-14T14:20:25.161Z,488
2017-11-14T14:21:33.783Z,512
2017-11-14T14:22:42.413Z,552
2017-11-14T14:23:51.043Z,616
2017-11-14T14:24:59.659Z,684
2017-11-14T14:26:08.280Z,712
2017-11-14T14:27:16.903Z,700
2017-11-14T14:28:25.541Z,672
2017-11-14T14:29:34.160Z,680
2017-11-14T14:30:42.786Z,672
2017-11-14T14:31:51.673Z,636
2017-11-14T14:33:00.301Z,600
2017-11-14T14:34:08.924Z,636
2017-11-14T14:35:17.545Z,672
2017-11-14T14:36:26.169Z,644
2017-11-14T14:37:34.799Z,640
2017-11-14T14:38:43.683Z,588
2017-11-14T14:39:52.305Z,508
2017-11-14T14:41:00.938Z,448
2017-11-14T14:42:09.572Z,440
2017-11-14T14:43:18.189Z,424
2017-11-14T14:44:26.817Z,448
2017-11-14T14:45:35.706Z,472
2017-11-14T14:46:44.338Z,380
2017-11-14T14:47:52.962Z,360
2017-11-14T14:49:01.582Z,348
2017-11-14T14:50:10.480Z,316
2017-11-14T14:51:19.101Z,296
2017-11-14T14:52:27.725Z,316
2017-11-14T14:53:36.351Z,316
2017-11-14T14:54:44.981Z,304
2017-11-14T14:55:53.599Z,276
2017-11-14T14:57:02.225Z,244
2017-11-14T14:58:10.853Z,236
2017-11-14T14:59:19.468Z,232
2017-11-14T15:00:28.104Z,224
2017-11-14T15:01:36.992Z,216
2017-11-14T15:02:45.621Z,224
2017-11-14T15:03:54.251Z,232
2017-11-14T15:05:02.871Z,252
2017-11-14T15:06:11.496Z,252
2017-11-14T15:07:20.124Z,240
2017-11-14T15:08:28.740Z,232
2017-11-14T15:09:37.366Z,224
2017-11-14T15:10:45.994Z,204
2017-11-14T15:11:54.618Z,192
2017-11-14T15:13:03.240Z,188
2017-11-14T15:14:11.869Z,180
2017-11-14T15:15:20.493Z,176
2017-11-14T15:16:29.121Z,172
2017-11-14T15:17:37.999Z,168
2017-11-14T15:18:46.626Z,164
2017-11-14T15:19:55.253Z,152
2017-11-14T15:21:03.875Z,148
2017-11-14T15:22:12.504Z,132
2017-11-14T15:23:21.124Z,128
2017-11-14T15:24:29.751Z,120
2017-11-14T15:25:38.376Z,108
2017-11-14T15:26:46.990Z,104
2017-11-14T15:27:55.883Z,104
2017-11-14T15:29:04.508Z,104
2017-11-14T15:30:13.135Z,100
2017-11-14T15:31:21.764Z,84
2017-11-14T15:32:30.380Z,76
2017-11-14T15:33:39.004Z,68
2017-11-14T15:34:47.638Z,48
2017-11-14T15:35:56.256Z,44
2017-11-14T15:37:04.884Z,44
2017-11-14T15:38:13.507Z,44
2017-11-14T15:39:22.132Z,36
2017-11-14T15:40:31.038Z,32
2017-11-14T15:41:39.669Z,24
2017-11-14T15:42:48.292Z,28
2017-11-14T15:43:56.920Z,20
2017-11-14T15:45:05.538Z,20
2017-11-14T15:46:14.163Z,20
2017-11-14T15:47:22.797Z,16
2017-11-14T15:48:31.411Z,16
2017-11-14T15:49:40.037Z,16
2017-11-14T15:50:48.670Z,12
2017-11-14T15:51:57.289Z,12
2017-11-14T15:53:05.910Z,8
2017-11-14T15:54:14.540Z,8
2017-11-14T15:55:23.163Z,8
2017-11-14T15:56:31.785Z,4
2017-11-14T15:57:40.415Z,4
2017-11-14T15:58:49.302Z,4
2017-11-14T15:59:57.935Z,4
2017-11-14T16:01:06.554Z,0
2017-11-14T16:02:15.176Z,4